createdAt,value
2019-04-11T00:01:45.249Z,30.00
2019-04-11T00:04:13.421Z,32.97
2019-04-11T00:06:44.260Z,35.87
2019-04-11T00:09:18.752Z,34.20
2019-04-11T00:11:50.107Z,40.43
2019-04-11T00:14:20.640Z,30.07
2019-04-11T00:16:51.092Z,31.77
2019-04-11T00:19:21.468Z,36.53
2019-04-11T00:21:51.780Z,31.80
2019-04-11T00:24:22.883Z,29.37
2019-04-11T00:26:54.894Z,41.53
2019-04-11T00:29:26.084Z,35.80
2019-04-11T00:31:56.993Z,29.80
2019-04-11T00:34:27.516Z,29.23
2019-04-11T00:36:58.890Z,32.77
2019-04-11T00:39:29.918Z,34.67
2019-04-11T00:42:00.488Z,36.37
2019-04-11T00:44:30.844Z,34.70
2019-04-11T00:47:01.251Z,28.40
2019-04-11T00:49:32.577Z,41.33
2019-04-11T00:52:04.593Z,33.17
2019-04-11T00:54:35.333Z,43.50
2019-04-11T00:57:06.550Z,33.87
2019-04-11T00:59:38.488Z,33.37
2019-04-11T01:02:09.367Z,36.40
2019-04-11T01:04:39.828Z,30.43
2019-04-11T01:07:11.094Z,35.70
2019-04-11T01:09:42.288Z,33.33
2019-04-11T01:12:12.837Z,41.73
2019-04-11T01:14:43.230Z,39.53
2019-04-11T01:17:14.842Z,32.43
2019-04-11T01:19:46.802Z,35.50
2019-04-11T01:22:18.174Z,34.83
2019-04-11T01:24:48.944Z,31.77
2019-04-11T01:27:19.464Z,39.43
2019-04-11T01:29:49.856Z,35.63
2019-04-11T01:32:20.560Z,28.03
2019-04-11T01:34:51.223Z,33.33
2019-04-11T01:37:21.922Z,29.00
2019-04-11T01:40:02.512Z,32.23
2019-04-11T01:42:35.589Z,34.23
2019-04-11T01:45:09.413Z,33.93
2019-04-11T01:48:01.937Z,35.13
2019-04-11T01:50:34.956Z,33.10
2019-04-11T01:53:06.701Z,36.37
2019-04-11T01:55:37.108Z,38.43
2019-04-11T01:58:08.611Z,33.73
2019-04-11T02:01:16.802Z,34.67
2019-04-11T02:04:03.651Z,33.80
2019-04-11T02:06:34.360Z,37.33
2019-04-11T02:09:08.702Z,42.17
2019-04-11T02:11:39.483Z,40.23
2019-04-11T02:14:15.542Z,38.00
2019-04-11T02:16:41.849Z,33.50
2019-04-11T02:19:12.187Z,37.97
2019-04-11T02:21:44.181Z,36.87
2019-04-11T02:24:39.703Z,42.00
2019-04-11T02:27:19.234Z,38.63
2019-04-11T02:29:50.843Z,39.53
2019-04-11T02:32:24.867Z,38.63
2019-04-11T02:34:58.938Z,38.53
2019-04-11T02:37:27.202Z,31.27
2019-04-11T02:39:58.416Z,32.57
2019-04-11T02:42:30.715Z,35.73
2019-04-11T02:45:16.446Z,33.20
2019-04-11T02:47:36.927Z,34.07
2019-04-11T02:50:08.195Z,32.63
2019-04-11T02:52:40.896Z,37.03
2019-04-11T02:55:13.129Z,37.70
2019-04-11T02:57:45.963Z,38.83
2019-04-11T03:00:18.080Z,33.77
2019-04-11T03:02:50.856Z,34.53
2019-04-11T03:05:21.537Z,32.47
2019-04-11T03:07:53.976Z,30.20
2019-04-11T03:10:24.957Z,35.33
2019-04-11T03:12:56.750Z,34.33
2019-04-11T03:15:43.000Z,35.03
2019-04-11T03:18:02.937Z,36.57
2019-04-11T03:20:40.798Z,32.40
2019-04-11T03:23:09.858Z,34.80
2019-04-11T03:25:40.572Z,31.83
2019-04-11T03:28:16.763Z,34.07
2019-04-11T03:31:06.928Z,38.00
2019-04-11T03:34:06.021Z,34.43
2019-04-11T03:36:36.982Z,37.93
2019-04-11T03:38:42.600Z,33.13
2019-04-11T03:41:12.817Z,38.57
2019-04-11T03:43:36.613Z,32.97
2019-04-11T03:46:16.010Z,37.17
2019-04-11T03:48:42.149Z,38.03
2019-04-11T03:51:04.490Z,32.27
2019-04-11T03:53:37.082Z,33.20
2019-04-11T03:56:07.686Z,36.50
2019-04-11T03:58:39.787Z,34.10
2019-04-11T04:01:11.596Z,33.60
2019-04-11T04:03:42.597Z,35.47
2019-04-11T04:06:14.677Z,30.57
2019-04-11T04:08:46.616Z,33.00
2019-04-11T04:11:26.708Z,33.97
2019-04-11T04:14:04.184Z,43.03
2019-04-11T04:16:48.289Z,36.20
2019-04-11T04:19:49.904Z,34.07
2019-04-11T04:22:31.443Z,40.80
2019-04-11T04:25:03.745Z,35.00
2019-04-11T04:27:34.788Z,42.60
2019-04-11T04:30:08.468Z,37.37
2019-04-11T04:32:40.475Z,45.93
2019-04-11T04:35:14.906Z,44.63
2019-04-11T04:37:45.268Z,32.93
2019-04-11T04:40:31.428Z,43.80
2019-04-11T04:42:52.694Z,44.00
2019-04-11T04:45:21.483Z,38.50
2019-04-11T04:48:00.483Z,38.97
2019-04-11T04:50:24.493Z,37.17
2019-04-11T04:52:55.954Z,37.60
2019-04-11T04:55:28.569Z,34.40
2019-04-11T04:57:59.863Z,38.30
2019-04-11T05:00:32.137Z,48.17
2019-04-11T05:03:02.754Z,44.10
2019-04-11T05:05:33.813Z,36.53
2019-04-11T05:08:06.153Z,40.70
2019-04-11T05:10:38.131Z,31.43
2019-04-11T05:13:09.900Z,35.90
2019-04-11T05:15:41.732Z,36.60
2019-04-11T05:18:14.880Z,34.23
2019-04-11T05:20:44.916Z,43.00
2019-04-11T05:23:15.231Z,37.90
2019-04-11T05:25:46.575Z,31.03
2019-04-11T05:28:17.021Z,32.70
2019-04-11T05:30:47.371Z,31.47
2019-04-11T05:33:18.010Z,35.70
2019-04-11T05:35:48.467Z,27.37
2019-04-11T05:38:18.938Z,29.73
2019-04-11T05:40:50.341Z,31.73
2019-04-11T05:43:22.517Z,33.23
2019-04-11T05:45:55.216Z,32.27
2019-04-11T05:48:35.326Z,33.37
2019-04-11T05:51:06.605Z,35.53
2019-04-11T05:53:38.652Z,29.10
2019-04-11T05:56:09.330Z,31.00
2019-04-11T05:58:44.338Z,35.83
2019-04-11T06:01:24.406Z,34.17
2019-04-11T06:03:57.361Z,32.43
2019-04-11T06:06:44.358Z,26.80
2019-04-11T06:09:20.901Z,27.67
2019-04-11T06:11:57.629Z,25.93
2019-04-11T06:14:31.704Z,31.83
2019-04-11T06:17:05.679Z,23.53
2019-04-11T06:19:50.143Z,23.70
2019-04-11T06:22:21.340Z,29.27
2019-04-11T06:25:18.821Z,25.70
2019-04-11T06:28:02.142Z,29.20
2019-04-11T06:31:01.051Z,27.37
2019-04-11T06:33:34.614Z,29.53
2019-04-11T06:36:28.074Z,22.73
2019-04-11T06:39:19.080Z,22.73
2019-04-11T06:42:05.954Z,20.73
2019-04-11T06:44:45.971Z,31.20
2019-04-11T06:47:34.674Z,27.97
2019-04-11T06:50:17.396Z,27.90
2019-04-11T06:52:48.797Z,23.23
2019-04-11T06:55:49.528Z,26.83
2019-04-11T06:58:23.623Z,22.00
2019-04-11T07:01:01.233Z,22.47
2019-04-11T07:03:36.683Z,24.53
2019-04-11T07:06:13.516Z,24.30
2019-04-11T07:09:03.306Z,27.67
2019-04-11T07:11:44.831Z,27.90
2019-04-11T07:14:31.220Z,23.17
2019-04-11T07:17:23.597Z,24.23
2019-04-11T07:20:11.434Z,22.37
2019-04-11T07:22:59.615Z,27.57
2019-04-11T07:26:08.030Z,21.63
2019-04-11T07:29:04.543Z,21.30
2019-04-11T07:32:00.899Z,22.23
2019-04-11T07:34:50.496Z,17.20
2019-04-11T07:37:38.694Z,20.43
2019-04-11T07:40:29.485Z,15.73
2019-04-11T07:43:14.917Z,18.13
2019-04-11T07:45:55.948Z,17.97
2019-04-11T07:48:29.948Z,21.13
2019-04-11T07:51:11.631Z,16.80
2019-04-11T07:53:45.959Z,21.73
2019-04-11T07:56:31.035Z,20.43
2019-04-11T07:59:05.112Z,18.90
2019-04-11T08:01:53.223Z,15.80
2019-04-11T08:04:55.367Z,20.50
2019-04-11T08:08:05.282Z,14.10
2019-04-11T08:10:41.443Z,13.07
2019-04-11T08:13:16.547Z,17.07
2019-04-11T08:16:06.404Z,13.83
2019-04-11T08:19:03.451Z,12.83
2019-04-11T08:22:04.969Z,13.00
2019-04-11T08:24:49.467Z,13.60
2019-04-11T08:27:48.046Z,11.23
2019-04-11T08:30:08.719Z,12.33
2019-04-11T08:32:58.239Z,10.00
2019-04-11T08:35:53.450Z,11.23
2019-04-11T08:38:24.955Z,11.27
2019-04-11T08:41:33.739Z,17.63
2019-04-11T08:44:09.805Z,13.90
2019-04-11T08:46:46.859Z,14.33
2019-04-11T08:49:29.980Z,17.10
2019-04-11T08:52:00.948Z,12.93
2019-04-11T08:54:56.220Z,12.73
2019-04-11T08:57:36.174Z,12.40
2019-04-11T09:00:26.276Z,10.20
2019-04-11T09:03:05.123Z,10.60
2019-04-11T09:05:49.366Z,13.57
2019-04-11T09:08:42.668Z,11.23
2019-04-11T09:11:39.474Z,12.50
2019-04-11T09:14:28.500Z,11.03
2019-04-11T09:17:21.479Z,13.77
2019-04-11T09:20:09.897Z,12.70
2019-04-11T09:22:47.149Z,8.67
2019-04-11T09:25:43.449Z,12.83
2019-04-11T09:28:33.971Z,13.37
2019-04-11T09:31:35.847Z,12.17
2019-04-11T09:34:28.167Z,10.50
2019-04-11T09:37:18.797Z,12.70
2019-04-11T09:40:23.948Z,14.40
2019-04-11T09:43:28.098Z,14.10
2019-04-11T09:46:24.153Z,13.37
2019-04-11T09:49:06.720Z,12.50
2019-04-11T09:51:47.746Z,13.13
2019-04-11T09:54:37.147Z,17.43
2019-04-11T09:57:29.461Z,12.40
2019-04-11T10:00:22.779Z,13.43
2019-04-11T10:03:13.032Z,12.10
2019-04-11T10:05:51.627Z,8.97
2019-04-11T10:08:41.675Z,10.57
2019-04-11T10:11:30.371Z,12.80
2019-04-11T10:14:07.250Z,11.17
2019-04-11T10:16:56.531Z,9.13
2019-04-11T10:19:44.202Z,11.80
2019-04-11T10:22:45.958Z,12.17
2019-04-11T10:25:28.254Z,11.80
2019-04-11T10:28:30.438Z,17.90
2019-04-11T10:31:08.915Z,14.23
2019-04-11T10:33:57.401Z,16.43
2019-04-11T10:36:34.842Z,10.83
2019-04-11T10:39:43.779Z,15.70
2019-04-11T10:42:15.167Z,11.30
2019-04-11T10:45:04.661Z,13.97
2019-04-11T10:47:36.782Z,11.63
2019-04-11T10:50:26.814Z,8.97
2019-04-11T10:53:00.617Z,13.00
2019-04-11T10:55:46.204Z,11.57
2019-04-11T10:58:20.589Z,10.53
2019-04-11T11:01:09.996Z,15.13
2019-04-11T11:03:49.339Z,10.23
2019-04-11T11:06:23.893Z,10.93
2019-04-11T11:09:14.204Z,14.13
2019-04-11T11:12:00.818Z,11.27
2019-04-11T11:14:55.393Z,11.33
2019-04-11T11:18:12.748Z,11.40
2019-04-11T11:20:45.532Z,11.73
2019-04-11T11:23:18.871Z,10.37
2019-04-11T11:26:00.595Z,11.80
2019-04-11T11:28:32.451Z,9.37
2019-04-11T11:31:18.419Z,12.77
2019-04-11T11:33:49.515Z,12.50
2019-04-11T11:36:39.603Z,12.33
2019-04-11T11:39:17.258Z,10.80
2019-04-11T11:42:22.185Z,10.17
2019-04-11T11:44:55.546Z,13.73
2019-04-11T11:47:43.423Z,8.93
2019-04-11T11:50:18.780Z,12.93
2019-04-11T11:53:09.583Z,9.00
2019-04-11T11:55:39.131Z,11.57
2019-04-11T11:58:28.457Z,9.03
2019-04-11T12:01:03.169Z,9.90
2019-04-11T12:03:42.839Z,9.03
2019-04-11T12:06:13.169Z,10.17
2019-04-11T12:09:08.379Z,11.00
2019-04-11T12:11:40.553Z,14.13
2019-04-11T12:14:33.064Z,9.97
2019-04-11T12:17:22.762Z,23.00
2019-04-11T12:20:06.435Z,12.27
2019-04-11T12:22:33.271Z,10.63
2019-04-11T12:25:09.315Z,11.07
2019-04-11T12:28:09.307Z,10.67
2019-04-11T12:30:39.895Z,9.50
2019-04-11T12:33:28.142Z,11.83
2019-04-11T12:36:18.717Z,12.13
2019-04-11T12:39:09.334Z,12.73
2019-04-11T12:42:17.694Z,8.43
2019-04-11T12:45:06.564Z,14.20
2019-04-11T12:47:43.857Z,8.90
2019-04-11T12:50:33.872Z,9.27
2019-04-11T12:53:15.335Z,10.17
2019-04-11T12:56:02.207Z,11.43
2019-04-11T12:58:36.474Z,11.60
2019-04-11T13:01:16.001Z,9.90
2019-04-11T13:04:23.531Z,13.50
2019-04-11T13:07:28.603Z,15.60
2019-04-11T13:10:19.859Z,11.47
2019-04-11T13:13:24.475Z,11.20
2019-04-11T13:15:57.926Z,10.50
2019-04-11T13:18:47.267Z,11.30
2019-04-11T13:21:24.728Z,26.63
2019-04-11T13:24:14.075Z,10.43
2019-04-11T13:27:11.096Z,8.10
2019-04-11T13:30:03.439Z,10.07
2019-04-11T13:32:44.823Z,10.10
2019-04-11T13:35:37.202Z,12.40
2019-04-11T13:38:22.800Z,8.80
2019-04-11T13:41:12.046Z,12.30
2019-04-11T13:43:48.222Z,14.10
2019-04-11T13:46:45.414Z,9.97
2019-04-11T13:49:41.724Z,10.47
2019-04-11T13:52:31.020Z,10.20
2019-04-11T13:55:20.011Z,14.13
2019-04-11T13:58:12.092Z,14.27
2019-04-11T14:00:45.986Z,14.27
2019-04-11T14:03:44.112Z,15.57
2019-04-11T14:06:23.536Z,13.00
2019-04-11T14:09:13.041Z,11.93
2019-04-11T14:11:48.246Z,10.23
2019-04-11T14:14:38.818Z,12.07
2019-04-11T14:17:26.810Z,9.87
2019-04-11T14:20:30.241Z,15.20
2019-04-11T14:23:34.426Z,10.03
2019-04-11T14:26:33.823Z,13.90
2019-04-11T14:29:27.003Z,11.70
2019-04-11T14:32:08.755Z,11.90
2019-04-11T14:34:56.809Z,13.30
2019-04-11T14:37:44.620Z,11.93
2019-04-11T14:40:26.794Z,11.20
2019-04-11T14:43:20.543Z,16.67
2019-04-11T14:46:15.946Z,13.23
2019-04-11T14:48:55.784Z,11.60
2019-04-11T14:51:53.901Z,9.57
2019-04-11T14:54:36.725Z,11.70
2019-04-11T14:57:36.148Z,15.90
2019-04-11T15:00:21.926Z,11.10
2019-04-11T15:03:23.934Z,10.60
2019-04-11T15:06:14.857Z,19.80
2019-04-11T15:09:03.207Z,13.20
2019-04-11T15:11:57.100Z,10.80
2019-04-11T15:14:51.792Z,11.87
2019-04-11T15:17:27.282Z,17.43
2019-04-11T15:20:23.780Z,12.60
2019-04-11T15:23:07.659Z,14.90
2019-04-11T15:26:09.132Z,11.60
2019-04-11T15:29:02.001Z,16.47
2019-04-11T15:31:44.812Z,21.73
2019-04-11T15:34:36.906Z,11.93
2019-04-11T15:37:25.842Z,11.53
2019-04-11T15:40:10.866Z,13.20
2019-04-11T15:43:05.930Z,10.23
2019-04-11T15:45:55.301Z,16.23
2019-04-11T15:48:53.939Z,14.10
2019-04-11T15:51:46.859Z,15.70
2019-04-11T15:54:42.100Z,14.93
2019-04-11T15:57:30.426Z,9.37
2019-04-11T16:00:28.976Z,10.77
2019-04-11T16:03:08.002Z,14.80
2019-04-11T16:06:09.382Z,10.13
2019-04-11T16:08:45.298Z,14.50
2019-04-11T16:11:53.083Z,16.30
2019-04-11T16:14:26.569Z,15.40
2019-04-11T16:17:14.773Z,12.40
2019-04-11T16:19:53.050Z,17.80
2019-04-11T16:22:54.990Z,26.70
2019-04-11T16:25:24.196Z,13.03
2019-04-11T16:28:12.473Z,15.47
2019-04-11T16:30:47.684Z,11.00
2019-04-11T16:33:29.448Z,16.83
2019-04-11T16:36:12.844Z,17.50
2019-04-11T16:38:50.423Z,15.53
2019-04-11T16:41:38.612Z,11.83
2019-04-11T16:44:13.842Z,13.17
2019-04-11T16:47:02.036Z,13.70
2019-04-11T16:49:33.591Z,17.37
2019-04-11T16:52:07.511Z,12.83
2019-04-11T16:54:39.735Z,16.40
2019-04-11T16:57:08.017Z,19.80
2019-04-11T16:59:38.362Z,14.40
2019-04-11T17:02:08.696Z,18.27
2019-04-11T17:04:39.054Z,14.97
2019-04-11T17:07:30.012Z,12.63
2019-04-11T17:10:02.096Z,10.80
2019-04-11T17:12:34.168Z,16.03
2019-04-11T17:15:06.834Z,13.30
2019-04-11T17:17:37.296Z,15.73
2019-04-11T17:20:08.224Z,14.80
2019-04-11T17:22:38.578Z,11.37
2019-04-11T17:25:09.549Z,15.00
2019-04-11T17:27:39.974Z,17.57
2019-04-11T17:30:10.968Z,17.60
2019-04-11T17:32:41.414Z,14.20
2019-04-11T17:35:11.850Z,15.37
2019-04-11T17:37:42.229Z,12.97
2019-04-11T17:40:12.710Z,13.23
2019-04-11T17:42:44.006Z,14.10
2019-04-11T17:45:15.031Z,12.53
2019-04-11T17:47:45.634Z,15.57
2019-04-11T17:50:16.204Z,13.70
2019-04-11T17:52:46.555Z,15.97
2019-04-11T17:55:16.926Z,16.00
2019-04-11T17:57:47.224Z,12.30
2019-04-11T18:00:29.563Z,14.20
2019-04-11T18:02:58.309Z,15.20
2019-04-11T18:05:28.594Z,30.87
2019-04-11T18:07:58.948Z,12.93
2019-04-11T18:10:29.530Z,19.60
2019-04-11T18:13:00.605Z,13.83
2019-04-11T18:15:31.841Z,23.73
2019-04-11T18:18:03.179Z,12.23
2019-04-11T18:20:37.119Z,15.20
2019-04-11T18:23:07.901Z,11.70
2019-04-11T18:25:38.506Z,13.90
2019-04-11T18:28:08.909Z,12.77
2019-04-11T18:30:39.310Z,18.07
2019-04-11T18:33:09.687Z,12.90
2019-04-11T18:35:41.040Z,24.33
2019-04-11T18:38:11.343Z,14.50
2019-04-11T18:40:42.214Z,16.40
2019-04-11T18:43:15.972Z,19.20
2019-04-11T18:45:44.830Z,15.80
2019-04-11T18:48:15.527Z,17.17
2019-04-11T18:50:45.799Z,19.20
2019-04-11T18:53:16.174Z,16.63
2019-04-11T18:55:46.630Z,18.90
2019-04-11T18:58:17.012Z,15.00
2019-04-11T19:00:47.359Z,17.50
2019-04-11T19:03:17.944Z,18.77
2019-04-11T19:05:48.328Z,21.30
2019-04-11T19:08:18.738Z,18.73
2019-04-11T19:10:49.064Z,23.73
2019-04-11T19:13:19.552Z,17.93
2019-04-11T19:15:49.950Z,22.33
2019-04-11T19:18:20.295Z,16.47
2019-04-11T19:20:50.930Z,22.17
2019-04-11T19:23:21.642Z,18.90
2019-04-11T19:25:52.042Z,23.37
2019-04-11T19:28:24.942Z,21.17
2019-04-11T19:30:56.795Z,21.40
2019-04-11T19:33:27.399Z,23.17
2019-04-11T19:35:57.740Z,37.23
2019-04-11T19:38:33.279Z,26.20
2019-04-11T19:41:03.898Z,65.60
2019-04-11T19:43:34.334Z,32.57
2019-04-11T19:46:04.845Z,34.77
2019-04-11T19:48:35.335Z,43.10
2019-04-11T19:51:05.695Z,34.50
2019-04-11T19:53:36.048Z,37.47
2019-04-11T19:56:20.491Z,38.13
2019-04-11T19:58:51.170Z,36.80
2019-04-11T20:01:23.437Z,41.83
2019-04-11T20:03:54.156Z,42.70
2019-04-11T20:06:25.329Z,36.57
2019-04-11T20:08:55.744Z,35.47
2019-04-11T20:11:26.178Z,34.00
2019-04-11T20:13:56.548Z,30.77
2019-04-11T20:16:26.849Z,29.53
2019-04-11T20:18:58.042Z,34.90
2019-04-11T20:21:29.197Z,32.87
2019-04-11T20:24:00.012Z,32.40
2019-04-11T20:26:30.401Z,30.60
2019-04-11T20:29:00.790Z,41.93
2019-04-11T20:31:31.151Z,43.23
2019-04-11T20:34:06.834Z,32.13
2019-04-11T20:36:34.637Z,29.27
2019-04-11T20:39:07.594Z,30.97
2019-04-11T20:41:38.206Z,32.07
2019-04-11T20:44:08.580Z,35.30
2019-04-11T20:46:38.926Z,33.90
2019-04-11T20:49:09.308Z,28.07
2019-04-11T20:51:39.646Z,33.00
2019-04-11T20:54:10.020Z,30.17
2019-04-11T20:56:40.948Z,26.80
2019-04-11T20:59:11.903Z,33.30
2019-04-11T21:01:42.141Z,26.67
2019-04-11T21:04:12.590Z,26.67
2019-04-11T21:06:42.887Z,26.30
2019-04-11T21:09:13.572Z,28.43
2019-04-11T21:11:44.063Z,25.27
2019-04-11T21:14:14.690Z,27.97
2019-04-11T21:16:45.115Z,23.87
2019-04-11T21:19:15.555Z,35.23
2019-04-11T21:21:45.948Z,23.20
2019-04-11T21:24:16.445Z,35.87
2019-04-11T21:26:48.888Z,28.07
2019-04-11T21:29:19.252Z,24.27
2019-04-11T21:31:49.670Z,22.10
2019-04-11T21:34:20.071Z,26.97
2019-04-11T21:36:50.565Z,36.30
2019-04-11T21:39:20.992Z,25.13
2019-04-11T21:41:51.506Z,23.63
2019-04-11T21:44:21.923Z,26.10
2019-04-11T21:46:52.322Z,22.87
2019-04-11T21:49:22.994Z,24.70
2019-04-11T21:51:53.490Z,27.53
2019-04-11T21:54:24.002Z,27.10
2019-04-11T21:56:54.485Z,26.83
2019-04-11T21:59:24.963Z,27.97
2019-04-11T22:01:55.323Z,25.83
2019-04-11T22:04:27.454Z,35.50
2019-04-11T22:07:00.699Z,23.87
2019-04-11T22:09:29.865Z,27.30
2019-04-11T22:12:00.195Z,28.90
2019-04-11T22:14:30.577Z,25.40
2019-04-11T22:17:01.261Z,27.70
2019-04-11T22:19:31.647Z,26.47
2019-04-11T22:22:02.021Z,21.67
2019-04-11T22:24:32.471Z,24.73
2019-04-11T22:27:02.843Z,31.80
2019-04-11T22:29:33.341Z,21.23
2019-04-11T22:32:03.725Z,25.90
2019-04-11T22:34:45.342Z,28.37
2019-04-11T22:37:15.771Z,27.50
2019-04-11T22:39:46.660Z,27.00
2019-04-11T22:42:17.051Z,27.90
2019-04-11T22:44:47.465Z,27.33
2019-04-11T22:47:17.976Z,31.43
2019-04-11T22:49:48.475Z,28.77
2019-04-11T22:52:18.907Z,24.97
2019-04-11T22:54:49.656Z,29.27
2019-04-11T22:57:19.997Z,26.83
2019-04-11T22:59:50.362Z,24.77
2019-04-11T23:02:27.843Z,33.00
2019-04-11T23:04:58.237Z,35.23
2019-04-11T23:07:28.814Z,28.10
2019-04-11T23:09:59.213Z,28.13
2019-04-11T23:12:29.679Z,24.13
2019-04-11T23:15:00.053Z,27.03
2019-04-11T23:17:30.546Z,26.87
2019-04-11T23:20:01.077Z,29.60
2019-04-11T23:22:31.333Z,30.77
2019-04-11T23:25:01.771Z,30.57
2019-04-11T23:27:33.420Z,31.87
2019-04-11T23:30:05.574Z,30.30
2019-04-11T23:32:35.974Z,30.97
2019-04-11T23:35:06.699Z,30.53
2019-04-11T23:37:51.091Z,29.97
2019-04-11T23:40:22.765Z,31.67
2019-04-11T23:42:53.145Z,26.77
2019-04-11T23:45:26.284Z,30.87
2019-04-11T23:47:56.656Z,30.40
2019-04-11T23:50:26.999Z,29.23
2019-04-11T23:52:58.145Z,28.03
2019-04-11T23:55:30.785Z,29.23
2019-04-11T23:58:02.182Z,33.77
